createdAt,value
2023-05-14T00:01:20.991Z,100720.91
2023-05-14T00:04:24.572Z,100711.28
2023-05-14T00:07:31.363Z,100715.84
2023-05-14T00:10:34.392Z,100709.97
2023-05-14T00:13:37.282Z,100700.69
2023-05-14T00:16:40.261Z,100703.19
2023-05-14T00:19:43.530Z,100702.13
2023-05-14T00:22:46.753Z,100695.31
2023-05-14T00:25:51.748Z,100691.78
2023-05-14T00:28:54.968Z,100695.13
2023-05-14T00:31:58.969Z,100693.44
2023-05-14T00:35:03.721Z,100692.00
2023-05-14T00:38:07.105Z,100689.41
2023-05-14T00:41:10.010Z,100683.69
2023-05-14T00:44:12.976Z,100690.81
2023-05-14T00:47:15.628Z,100681.41
2023-05-14T00:50:19.291Z,100682.56
2023-05-14T00:53:23.398Z,100681.41
2023-05-14T00:56:28.001Z,100682.59
2023-05-14T00:59:34.762Z,100674.59
2023-05-14T01:02:38.041Z,100674.97
2023-05-14T01:05:48.718Z,100667.13
2023-05-14T01:08:53.376Z,100666.50
2023-05-14T01:12:09.822Z,100656.38
2023-05-14T01:15:19.035Z,100653.56
2023-05-14T01:18:23.673Z,100656.19
2023-05-14T01:21:36.617Z,100654.19
2023-05-14T01:24:43.128Z,100652.53
2023-05-14T01:27:51.505Z,100653.97
2023-05-14T01:30:58.688Z,100644.97
2023-05-14T01:34:02.977Z,100642.59
2023-05-14T01:37:06.973Z,100634.81
2023-05-14T01:40:11.205Z,100630.88
2023-05-14T01:43:17.492Z,100620.84
2023-05-14T01:46:21.907Z,100622.16
2023-05-14T01:49:25.589Z,100614.34
2023-05-14T01:52:30.644Z,100605.78
2023-05-14T01:55:36.479Z,100601.28
2023-05-14T01:58:42.644Z,100587.69
2023-05-14T02:01:46.106Z,100591.41
2023-05-14T02:04:48.846Z,100585.56
2023-05-14T02:07:54.688Z,100583.78
2023-05-14T02:10:58.517Z,100581.50
2023-05-14T02:14:06.220Z,100590.19
2023-05-14T02:17:10.852Z,100583.19
2023-05-14T02:20:16.375Z,100581.62
2023-05-14T02:23:22.037Z,100584.84
2023-05-14T02:26:29.317Z,100584.94
2023-05-14T02:29:33.167Z,100582.34
2023-05-14T02:32:36.314Z,100583.19
2023-05-14T02:35:39.514Z,100581.50
2023-05-14T02:38:42.875Z,100582.22
2023-05-14T02:41:45.604Z,100574.28
2023-05-14T02:44:48.287Z,100580.56
2023-05-14T02:47:51.585Z,100576.28
2023-05-14T02:50:55.442Z,100578.06
2023-05-14T02:53:59.938Z,100585.81
2023-05-14T02:57:03.319Z,100580.13
2023-05-14T03:00:07.640Z,100582.22
2023-05-14T03:03:11.934Z,100578.06
2023-05-14T03:06:15.253Z,100574.72
2023-05-14T03:09:19.065Z,100577.50
2023-05-14T03:12:22.315Z,100562.13
2023-05-14T03:15:25.505Z,100568.00
2023-05-14T03:18:31.332Z,100571.78
2023-05-14T03:21:34.243Z,100569.25
2023-05-14T03:24:38.607Z,100573.66
2023-05-14T03:27:41.257Z,100578.16
2023-05-14T03:30:44.768Z,100569.47
2023-05-14T03:33:47.972Z,100564.38
2023-05-14T03:36:51.482Z,100565.38
2023-05-14T03:39:55.089Z,100561.06
2023-05-14T03:42:58.651Z,100566.22
2023-05-14T03:46:01.384Z,100567.62
2023-05-14T03:49:04.287Z,100566.94
2023-05-14T03:52:07.239Z,100576.94
2023-05-14T03:55:11.282Z,100570.19
2023-05-14T03:58:15.204Z,100552.59
2023-05-14T04:01:18.478Z,100549.03
2023-05-14T04:04:22.390Z,100550.44
2023-05-14T04:07:24.868Z,100550.34
2023-05-14T04:10:28.574Z,100561.03
2023-05-14T04:13:31.968Z,100550.81
2023-05-14T04:16:35.871Z,100555.72
2023-05-14T04:19:40.425Z,100557.75
2023-05-14T04:22:43.844Z,100552.78
2023-05-14T04:25:48.061Z,100551.72
2023-05-14T04:28:51.829Z,100548.59
2023-05-14T04:31:54.750Z,100550.81
2023-05-14T04:34:58.335Z,100542.75
2023-05-14T04:38:02.038Z,100541.31
2023-05-14T04:41:06.618Z,100541.56
2023-05-14T04:44:11.943Z,100538.22
2023-05-14T04:47:15.206Z,100550.25
2023-05-14T04:50:19.487Z,100556.06
2023-05-14T04:53:22.127Z,100546.41
2023-05-14T04:56:25.907Z,100539.69
2023-05-14T04:59:31.925Z,100550.16
2023-05-14T05:02:36.592Z,100542.97
2023-05-14T05:05:40.046Z,100539.28
2023-05-14T05:08:44.131Z,100536.75
2023-05-14T05:11:47.820Z,100529.88
2023-05-14T05:14:53.678Z,100537.06
2023-05-14T05:17:58.177Z,100532.41
2023-05-14T05:21:01.655Z,100534.16
2023-05-14T05:24:13.565Z,100529.97
2023-05-14T05:27:20.815Z,100526.91
2023-05-14T05:30:25.028Z,100517.69
2023-05-14T05:33:35.541Z,100525.06
2023-05-14T05:36:41.183Z,100526.75
2023-05-14T05:39:50.046Z,100524.28
2023-05-14T05:42:52.985Z,100527.72
2023-05-14T05:45:55.297Z,100526.16
2023-05-14T05:48:57.374Z,100529.69
2023-05-14T05:52:08.306Z,100525.91
2023-05-14T05:55:18.078Z,100531.84
2023-05-14T05:58:21.209Z,100529.16
2023-05-14T06:01:25.028Z,100532.37
2023-05-14T06:04:35.100Z,100532.37
2023-05-14T06:07:44.685Z,100529.78
2023-05-14T06:10:51.052Z,100541.06
2023-05-14T06:13:54.758Z,100544.34
2023-05-14T06:17:07.907Z,100539.09
2023-05-14T06:20:17.856Z,100539.63
2023-05-14T06:23:21.039Z,100537.78
2023-05-14T06:26:26.642Z,100544.78
2023-05-14T06:29:30.898Z,100540.84
2023-05-14T06:32:34.085Z,100543.28
2023-05-14T06:35:40.364Z,100540.69
2023-05-14T06:38:51.252Z,100534.94
2023-05-14T06:41:54.246Z,100539.22
2023-05-14T06:44:56.614Z,100535.25
2023-05-14T06:48:03.847Z,100527.12
2023-05-14T06:51:06.610Z,100520.31
2023-05-14T06:54:10.439Z,100520.59
2023-05-14T06:57:12.895Z,100518.72
2023-05-14T07:00:15.623Z,100515.63
2023-05-14T07:03:21.246Z,100498.66
2023-05-14T07:06:23.817Z,100504.13
2023-05-14T07:09:30.496Z,100501.72
2023-05-14T07:12:32.982Z,100495.72
2023-05-14T07:15:50.717Z,100492.81
2023-05-14T07:18:57.626Z,100484.16
2023-05-14T07:22:00.793Z,100492.38
2023-05-14T07:25:10.432Z,100486.78
2023-05-14T07:28:15.163Z,100490.28
2023-05-14T07:31:20.269Z,100483.84
2023-05-14T07:34:26.159Z,100479.81
2023-05-14T07:37:35.817Z,100477.75
2023-05-14T07:40:38.704Z,100479.62
2023-05-14T07:43:48.675Z,100480.59
2023-05-14T07:46:51.194Z,100479.28
2023-05-14T07:49:57.076Z,100478.44
2023-05-14T07:53:06.534Z,100474.84
2023-05-14T07:56:11.894Z,100468.38
2023-05-14T07:59:16.101Z,100462.28
2023-05-14T08:02:18.890Z,100459.03
2023-05-14T08:05:26.086Z,100456.22
2023-05-14T08:08:43.634Z,100455.28
2023-05-14T08:11:47.032Z,100451.91
2023-05-14T08:14:55.138Z,100445.56
2023-05-14T08:17:59.192Z,100435.28
2023-05-14T08:21:03.546Z,100438.84
2023-05-14T08:24:10.671Z,100430.97
2023-05-14T08:27:14.495Z,100424.50
2023-05-14T08:30:17.066Z,100422.00
2023-05-14T08:33:21.466Z,100418.31
2023-05-14T08:36:24.179Z,100412.72
2023-05-14T08:39:27.050Z,100413.44
2023-05-14T08:42:29.608Z,100413.59
2023-05-14T08:45:34.886Z,100408.47
2023-05-14T08:48:38.141Z,100403.09
2023-05-14T08:51:41.533Z,100397.72
2023-05-14T08:54:45.695Z,100394.84
2023-05-14T08:57:50.593Z,100394.53
2023-05-14T09:00:54.276Z,100404.53
2023-05-14T09:03:57.312Z,100402.63
2023-05-14T09:07:03.646Z,100400.94
2023-05-14T09:10:09.049Z,100398.31
2023-05-14T09:13:11.547Z,100399.28
2023-05-14T09:16:14.301Z,100403.09
2023-05-14T09:19:19.712Z,100391.09
2023-05-14T09:22:24.492Z,100393.34
2023-05-14T09:25:28.996Z,100389.06
2023-05-14T09:28:34.706Z,100387.84
2023-05-14T09:31:42.344Z,100377.84
2023-05-14T09:34:52.383Z,100377.03
2023-05-14T09:37:55.267Z,100375.19
2023-05-14T09:40:58.525Z,100378.81
2023-05-14T09:44:04.718Z,100374.16
2023-05-14T09:47:09.719Z,100369.50
2023-05-14T09:50:11.769Z,100350.47
2023-05-14T09:53:15.236Z,100352.84
2023-05-14T09:56:17.693Z,100346.16
2023-05-14T09:59:19.982Z,100349.91
2023-05-14T10:02:23.962Z,100346.28
2023-05-14T10:05:28.049Z,100346.50
2023-05-14T10:08:37.097Z,100335.44
2023-05-14T10:11:42.655Z,100316.94
2023-05-14T10:14:49.878Z,100308.41
2023-05-14T10:17:56.162Z,100298.81
2023-05-14T10:21:04.657Z,100284.16
2023-05-14T10:24:08.375Z,100279.75
2023-05-14T10:27:11.518Z,100259.72
2023-05-14T10:30:14.645Z,100242.72
2023-05-14T10:33:18.923Z,100229.38
2023-05-14T10:36:21.978Z,100255.09
2023-05-14T10:39:40.168Z,100275.66
2023-05-14T10:42:46.680Z,100279.03
2023-05-14T10:45:48.968Z,100278.72
2023-05-14T10:48:51.039Z,100283.69
2023-05-14T10:51:55.686Z,100273.19
2023-05-14T10:55:09.916Z,100272.38
2023-05-14T10:58:12.423Z,100273.72
2023-05-14T11:01:17.714Z,100271.09
2023-05-14T11:04:24.011Z,100265.88
2023-05-14T11:07:34.579Z,100266.47
2023-05-14T11:10:39.336Z,100272.28
2023-05-14T11:13:42.109Z,100260.81
2023-05-14T11:16:44.499Z,100255.41
2023-05-14T11:19:48.831Z,100251.94
2023-05-14T11:22:52.688Z,100241.56
2023-05-14T11:25:56.873Z,100247.69
2023-05-14T11:28:59.334Z,100251.88
2023-05-14T11:32:02.957Z,100237.94
2023-05-14T11:35:06.147Z,100241.78
2023-05-14T11:38:09.327Z,100241.19
2023-05-14T11:41:14.793Z,100240.25
2023-05-14T11:44:17.758Z,100241.09
2023-05-14T11:47:21.775Z,100240.00
2023-05-14T11:50:24.974Z,100235.97
2023-05-14T11:53:28.672Z,100241.59
2023-05-14T11:56:30.704Z,100233.41
2023-05-14T11:59:32.865Z,100226.50
2023-05-14T12:02:35.056Z,100230.66
2023-05-14T12:05:40.487Z,100216.28
2023-05-14T12:08:42.625Z,100206.69
2023-05-14T12:11:46.411Z,100204.56
2023-05-14T12:14:49.057Z,100203.47
2023-05-14T12:17:51.970Z,100197.09
2023-05-14T12:20:54.252Z,100189.47
2023-05-14T12:24:00.228Z,100187.13
2023-05-14T12:27:02.500Z,100179.03
2023-05-14T12:33:10.585Z,100182.87
2023-05-14T12:36:21.677Z,100183.94
2023-05-14T12:39:25.069Z,100178.84
2023-05-14T12:42:27.414Z,100187.97
2023-05-14T12:45:30.079Z,100185.59
2023-05-14T12:48:32.140Z,100180.47
2023-05-14T12:51:34.295Z,100178.63
2023-05-14T12:54:36.323Z,100179.44
2023-05-14T12:57:39.713Z,100161.63
2023-05-14T13:00:41.948Z,100158.75
2023-05-14T13:03:43.908Z,100146.75
2023-05-14T13:06:45.831Z,100143.31
2023-05-14T13:09:47.796Z,100139.38
2023-05-14T13:12:50.672Z,100129.72
2023-05-14T13:15:53.430Z,100138.53
2023-05-14T13:18:55.702Z,100129.63
2023-05-14T13:21:57.797Z,100135.41
2023-05-14T13:24:59.970Z,100121.69
2023-05-14T13:28:02.003Z,100119.19
2023-05-14T13:31:07.124Z,100116.13
2023-05-14T13:34:10.254Z,100100.56
2023-05-14T13:37:12.466Z,100097.25
2023-05-14T13:40:14.487Z,100102.38
2023-05-14T13:43:17.016Z,100095.06
2023-05-14T13:46:18.994Z,100084.72
2023-05-14T13:49:21.363Z,100075.22
2023-05-14T13:52:23.251Z,100076.03
2023-05-14T13:55:25.315Z,100078.66
2023-05-14T13:58:27.562Z,100068.91
2023-05-14T14:01:31.117Z,100063.03
2023-05-14T14:04:33.335Z,100068.13
2023-05-14T14:07:35.695Z,100061.34
2023-05-14T14:10:39.494Z,100060.72
2023-05-14T14:13:41.597Z,100053.53
2023-05-14T14:16:43.642Z,100049.00
2023-05-14T14:19:45.832Z,100050.69
2023-05-14T14:22:47.724Z,100052.88
2023-05-14T14:25:49.825Z,100052.06
2023-05-14T14:28:51.717Z,100057.84
2023-05-14T14:31:54.023Z,100050.41
2023-05-14T14:34:55.999Z,100056.66
2023-05-14T14:37:57.880Z,100053.06
2023-05-14T14:41:00.053Z,100061.56
2023-05-14T14:44:02.827Z,100055.22
2023-05-14T14:47:04.939Z,100041.13
2023-05-14T14:50:07.467Z,100038.59
2023-05-14T14:53:09.760Z,100038.59
2023-05-14T14:56:11.858Z,100033.63
2023-05-14T14:59:13.792Z,100040.13
2023-05-14T15:02:16.044Z,100024.59
2023-05-14T15:05:17.982Z,100027.56
2023-05-14T15:08:23.196Z,100023.03
2023-05-14T15:11:25.181Z,100016.47
2023-05-14T15:14:27.169Z,100002.94
2023-05-14T15:17:29.231Z,100012.47
2023-05-14T15:20:31.241Z,100000.88
2023-05-14T15:23:33.191Z,99996.59
2023-05-14T15:26:35.212Z,99997.94
2023-05-14T15:29:38.693Z,99996.28
2023-05-14T15:32:41.376Z,99995.00
2023-05-14T15:35:43.314Z,99992.38
2023-05-14T15:38:45.503Z,99994.56
2023-05-14T15:41:47.554Z,99995.38
2023-05-14T15:44:49.597Z,99986.13
2023-05-14T15:47:51.657Z,99988.03
2023-05-14T15:50:53.724Z,99987.59
2023-05-14T15:53:55.677Z,99977.50
2023-05-14T15:56:58.603Z,99973.34
2023-05-14T16:00:00.699Z,99956.78
2023-05-14T16:03:02.892Z,99943.31
2023-05-14T16:06:05.032Z,99945.81
2023-05-14T16:09:06.887Z,99936.28
2023-05-14T16:12:09.303Z,99929.97
2023-05-14T16:15:11.417Z,99943.62
2023-05-14T16:18:13.373Z,99942.22
2023-05-14T16:21:15.579Z,99942.38
2023-05-14T16:24:20.692Z,99944.00
2023-05-14T16:27:22.723Z,99936.28
2023-05-14T16:30:24.993Z,99949.63
2023-05-14T16:33:27.384Z,99940.84
2023-05-14T16:36:31.525Z,99939.87
2023-05-14T16:39:33.521Z,99941.06
2023-05-14T16:42:35.688Z,99931.06
2023-05-14T16:45:37.878Z,99937.56
2023-05-14T16:48:39.978Z,99913.19
2023-05-14T16:51:43.240Z,99913.06
2023-05-14T16:54:45.128Z,99893.22
2023-05-14T16:57:47.007Z,99895.84
2023-05-14T17:00:48.871Z,99889.38
2023-05-14T17:03:50.697Z,99891.44
2023-05-14T17:06:52.741Z,99900.53
2023-05-14T17:09:54.857Z,99885.22
2023-05-14T17:12:56.874Z,99885.53
2023-05-14T17:15:58.968Z,99880.47
2023-05-14T17:19:01.021Z,99873.31
2023-05-14T17:22:05.798Z,99866.69
2023-05-14T17:25:08.143Z,99862.97
2023-05-14T17:28:10.031Z,99868.75
2023-05-14T17:31:11.938Z,99872.09
2023-05-14T17:34:14.075Z,99871.16
2023-05-14T17:37:16.193Z,99859.16
2023-05-14T17:40:19.426Z,99856.13
2023-05-14T17:43:21.254Z,99854.75
2023-05-14T17:46:23.372Z,99853.22
2023-05-14T17:49:25.380Z,99845.66
2023-05-14T17:52:27.269Z,99837.62
2023-05-14T17:55:29.173Z,99832.41
2023-05-14T17:58:31.001Z,99832.66
2023-05-14T18:01:33.783Z,99824.69
2023-05-14T18:04:35.700Z,99815.59
2023-05-14T18:07:37.601Z,99812.97
2023-05-14T18:10:39.429Z,99818.31
2023-05-14T18:13:41.279Z,99818.06
2023-05-14T18:16:43.515Z,99806.94
2023-05-14T18:19:45.527Z,99803.59
2023-05-14T18:22:49.481Z,99812.97
2023-05-14T18:25:51.681Z,99814.50
2023-05-14T18:28:53.607Z,99820.16
2023-05-14T18:31:55.644Z,99831.38
2023-05-14T18:34:57.463Z,99828.47
2023-05-14T18:37:59.475Z,99839.53
2023-05-14T18:41:01.506Z,99827.09
2023-05-14T18:44:03.490Z,99827.19
2023-05-14T18:47:05.700Z,99833.41
2023-05-14T18:50:08.200Z,99833.41
2023-05-14T18:53:10.962Z,99831.06
2023-05-14T18:56:12.912Z,99832.00
2023-05-14T18:59:14.811Z,99825.56
2023-05-14T19:02:16.845Z,99818.66
2023-05-14T19:05:19.366Z,99826.00
2023-05-14T19:08:21.248Z,99824.22
2023-05-14T19:11:23.272Z,99820.84
2023-05-14T19:14:25.237Z,99816.03
2023-05-14T19:17:29.494Z,99812.22
2023-05-14T19:20:31.445Z,99810.16
2023-05-14T19:23:33.472Z,99810.31
2023-05-14T19:26:35.358Z,99816.38
2023-05-14T19:29:37.160Z,99802.72
2023-05-14T19:32:39.040Z,99797.38
2023-05-14T19:35:40.979Z,99799.12
2023-05-14T19:38:43.078Z,99802.34
2023-05-14T19:41:45.083Z,99800.41
2023-05-14T19:44:46.908Z,99795.84
2023-05-14T19:47:48.870Z,99798.72
2023-05-14T19:50:51.899Z,99785.53
2023-05-14T19:53:53.771Z,99784.00
2023-05-14T19:56:55.738Z,99793.66
2023-05-14T19:59:59.201Z,99795.72
2023-05-14T20:03:02.240Z,99793.09
2023-05-14T20:06:06.701Z,99788.69
2023-05-14T20:09:08.545Z,99783.16
2023-05-14T20:12:10.939Z,99781.09
2023-05-14T20:15:12.822Z,99781.09
2023-05-14T20:18:16.141Z,99773.66
2023-05-14T20:21:18.284Z,99772.00
2023-05-14T20:24:20.272Z,99774.78
2023-05-14T20:27:22.168Z,99776.00
2023-05-14T20:30:24.466Z,99773.13
2023-05-14T20:33:28.775Z,99772.03
2023-05-14T20:36:34.962Z,99767.34
2023-05-14T20:39:36.834Z,99759.19
2023-05-14T20:42:38.819Z,99757.56
2023-05-14T20:45:40.948Z,99746.50
2023-05-14T20:48:42.886Z,99742.25
2023-05-14T20:51:46.386Z,99724.47
2023-05-14T20:54:51.333Z,99737.84
2023-05-14T20:57:53.255Z,99726.69
2023-05-14T21:00:55.411Z,99727.22
2023-05-14T21:03:57.608Z,99721.88
2023-05-14T21:06:59.834Z,99707.94
2023-05-14T21:10:01.913Z,99710.53
2023-05-14T21:13:03.918Z,99705.06
2023-05-14T21:16:06.112Z,99704.19
2023-05-14T21:19:08.016Z,99709.31
2023-05-14T21:22:09.920Z,99711.81
2023-05-14T21:25:11.960Z,99704.91
2023-05-14T21:28:13.882Z,99694.72
2023-05-14T21:31:16.021Z,99688.91
2023-05-14T21:34:18.154Z,99688.25
2023-05-14T21:37:26.139Z,99679.00
2023-05-14T21:40:30.624Z,99666.59
2023-05-14T21:43:32.656Z,99652.81
2023-05-14T21:46:34.608Z,99653.62
2023-05-14T21:49:36.801Z,99649.09
2023-05-14T21:52:39.631Z,99635.31
2023-05-14T21:55:41.697Z,99639.44
2023-05-14T21:58:45.141Z,99639.84
2023-05-14T22:02:05.419Z,99636.69
2023-05-14T22:05:08.092Z,99639.19
2023-05-14T22:08:10.997Z,99646.34
2023-05-14T22:11:13.066Z,99650.06
2023-05-14T22:14:15.340Z,99648.69
2023-05-14T22:17:17.308Z,99652.13
2023-05-14T22:20:19.266Z,99661.09
2023-05-14T22:23:21.434Z,99654.75
2023-05-14T22:26:23.369Z,99647.00
2023-05-14T22:29:26.789Z,99656.38
2023-05-14T22:32:28.789Z,99651.31
2023-05-14T22:35:31.023Z,99649.09
2023-05-14T22:38:35.955Z,99637.09
2023-05-14T22:41:37.905Z,99642.34
2023-05-14T22:44:39.789Z,99643.84
2023-05-14T22:47:41.765Z,99651.72
2023-05-14T22:50:44.717Z,99642.87
2023-05-14T22:53:47.571Z,99643.28
2023-05-14T22:56:50.008Z,99646.03
2023-05-14T22:59:52.155Z,99648.81
2023-05-14T23:02:54.117Z,99646.19
2023-05-14T23:05:56.015Z,99635.72
2023-05-14T23:08:58.004Z,99635.72
2023-05-14T23:11:59.987Z,99634.44
2023-05-14T23:15:02.214Z,99632.81
2023-05-14T23:18:04.413Z,99627.69
2023-05-14T23:21:06.596Z,99624.66
2023-05-14T23:24:10.805Z,99610.06
2023-05-14T23:27:13.954Z,99601.50
2023-05-14T23:30:15.846Z,99599.59
2023-05-14T23:33:18.262Z,99594.63
2023-05-14T23:36:21.638Z,99582.06
2023-05-14T23:39:23.704Z,99577.00
2023-05-14T23:42:26.049Z,99576.84
2023-05-14T23:45:28.146Z,99582.22
2023-05-14T23:48:30.173Z,99577.81
2023-05-14T23:51:32.182Z,99570.78
2023-05-14T23:54:35.372Z,99559.63
2023-05-14T23:57:37.726Z,99551.47
